Time;durP1;ratioP1;P1;durP2;ratioP2;P2;SDS_P1;SDS_P2;PMS_P1;PMS_P2;Temp;Humidity;BMP_temperature;BMP_pressure;BME280_temperature;BME280_humidity;BME280_pressure;Samples;Min_cycle;Max_cycle;Signal;HPM_P1;HPM_P2
2021/05/04 00:02:19;;;;;;;2.30;2.20;;;;;;;5.40;60.42;96183.75;5074398;28;20040;-78
2021/05/04 00:04:45;;;;;;;2.65;2.45;;;;;;;5.38;60.30;96173.53;5073226;28;20053;-76
2021/05/04 00:07:12;;;;;;;2.60;2.40;;;;;;;5.35;60.54;96175.69;5074022;28;20041;-81
2021/05/04 00:09:38;;;;;;;2.83;2.50;;;;;;;5.32;60.58;96169.09;5074054;28;20051;-81
2021/05/04 00:12:04;;;;;;;2.67;2.47;;;;;;;5.31;60.63;96170.06;5074530;28;20048;-81
2021/05/04 00:14:32;;;;;;;2.28;2.17;;;;;;;5.27;60.63;96161.03;5073863;28;20040;-81
2021/05/04 00:16:58;;;;;;;2.72;2.53;;;;;;;5.25;60.76;96160.47;5074083;28;20051;-81
2021/05/04 00:19:24;;;;;;;2.35;2.20;;;;;;;5.25;60.79;96150.84;5073999;28;20036;-82
2021/05/04 00:21:50;;;;;;;2.50;2.35;;;;;;;5.27;60.99;96150.66;5074280;28;20040;-81
2021/05/04 00:24:16;;;;;;;2.70;2.50;;;;;;;5.27;60.93;96151.47;5073950;28;20056;-81
2021/05/04 00:26:44;;;;;;;2.45;2.25;;;;;;;5.26;61.05;96143.84;5073253;28;20028;-80
2021/05/04 00:29:10;;;;;;;2.50;2.30;;;;;;;5.28;61.20;96152.25;5072518;28;20462;-80
2021/05/04 00:31:37;;;;;;;2.40;2.25;;;;;;;5.29;61.28;96143.47;5074121;28;20055;-80
2021/05/04 00:34:03;;;;;;;2.80;2.60;;;;;;;5.29;61.28;96149.47;5073708;28;20048;-80
2021/05/04 00:36:30;;;;;;;2.03;1.92;;;;;;;5.29;61.15;96146.06;5073843;28;20040;-80
2021/05/04 00:38:56;;;;;;;2.58;2.30;;;;;;;5.30;61.48;96150.28;5072262;28;20044;-80
2021/05/04 00:41:22;;;;;;;3.83;2.17;;;;;;;5.31;61.47;96140.69;5071933;28;20469;-82
2021/05/04 00:43:49;;;;;;;2.90;2.60;;;;;;;5.31;61.26;96138.06;5074305;28;20040;-82
2021/05/04 00:46:16;;;;;;;2.60;2.40;;;;;;;5.31;61.33;96141.47;5073697;28;20040;-81
2021/05/04 00:48:43;;;;;;;2.60;2.40;;;;;;;5.31;61.36;96138.88;5072556;28;20032;-81
2021/05/04 00:51:09;;;;;;;2.88;2.58;;;;;;;5.27;61.47;96135.88;5073307;28;20397;-81
2021/05/04 00:53:35;;;;;;;2.60;2.40;;;;;;;5.19;61.35;96128.22;5074235;28;20036;-81
2021/05/04 00:56:02;;;;;;;2.72;2.53;;;;;;;5.14;61.60;96127.97;5073244;28;20047;-81
2021/05/04 00:58:28;;;;;;;2.50;2.33;;;;;;;5.08;61.71;96116.56;5073211;28;20045;-81
2021/05/04 01:00:55;;;;;;;2.53;2.33;;;;;;;5.06;61.72;96134.16;5073471;28;20067;-81
2021/05/04 01:03:22;;;;;;;3.85;3.00;;;;;;;5.05;62.05;96124.72;5073319;28;20028;-79
2021/05/04 01:05:48;;;;;;;3.20;2.90;;;;;;;5.02;62.16;96119.13;5073575;28;20032;-79
2021/05/04 01:08:14;;;;;;;2.72;2.53;;;;;;;4.97;62.13;96114.50;5073233;28;20515;-79
2021/05/04 01:10:40;;;;;;;2.88;2.67;;;;;;;4.96;62.36;96112.91;5071497;28;20048;-80
2021/05/04 01:13:07;;;;;;;2.60;2.40;;;;;;;4.92;62.46;96109.06;5072841;28;20041;-80
2021/05/04 01:15:34;;;;;;;2.70;2.50;;;;;;;4.90;62.55;96107.66;5072679;28;20400;-80
2021/05/04 01:18:00;;;;;;;2.55;2.35;;;;;;;4.80;62.62;96093.19;5073051;28;20036;-80
2021/05/04 01:20:26;;;;;;;2.35;2.20;;;;;;;4.75;62.64;96081.78;5073184;28;20481;-79
2021/05/04 01:22:53;;;;;;;2.30;2.10;;;;;;;4.70;62.78;96087.53;5073805;28;20036;-79
2021/05/04 01:25:19;;;;;;;2.35;2.15;;;;;;;4.70;62.77;96087.53;5073045;28;20040;-79
2021/05/04 01:27:45;;;;;;;2.35;2.15;;;;;;;4.75;62.99;96084.38;5073205;28;20039;-80
2021/05/04 01:30:12;;;;;;;2.15;2.05;;;;;;;4.77;63.07;96080.59;5072485;28;20048;-79
2021/05/04 01:32:38;;;;;;;2.45;2.25;;;;;;;4.79;63.17;96080.41;5073703;28;20039;-79
2021/05/04 01:35:09;;;;;;;2.28;2.03;;;;;;;4.77;63.50;96077.22;5073028;28;20040;-80
2021/05/04 01:37:39;;;;;;;2.13;2.03;;;;;;;4.76;62.95;96078.97;5073580;28;20040;-81
2021/05/04 01:40:07;;;;;;;2.47;2.28;;;;;;;4.75;63.27;96072.19;5073306;28;20045;-80
2021/05/04 01:42:33;;;;;;;2.25;2.15;;;;;;;4.76;63.13;96065.19;5071558;28;20028;-81
2021/05/04 01:44:59;;;;;;;2.45;2.20;;;;;;;4.78;63.27;96063.22;5073413;28;20373;-82
2021/05/04 01:47:26;;;;;;;2.40;2.20;;;;;;;4.76;63.19;96050.41;5073181;28;20472;-82
2021/05/04 01:49:52;;;;;;;2.38;2.17;;;;;;;4.77;63.25;96048.63;5075311;28;20055;-82
2021/05/04 01:52:18;;;;;;;2.83;2.63;;;;;;;4.77;63.14;96046.03;5077266;28;20047;-81
2021/05/04 01:54:45;;;;;;;2.38;2.17;;;;;;;4.77;63.26;96046.03;5076828;28;20424;-81
2021/05/04 01:57:11;;;;;;;2.42;2.22;;;;;;;4.78;63.62;96038.03;5076630;28;20047;-81
2021/05/04 01:59:37;;;;;;;2.28;2.17;;;;;;;4.79;63.54;96034.47;5058727;28;20052;-81
2021/05/04 02:02:04;;;;;;;2.40;2.20;;;;;;;4.80;63.42;96025.66;5076824;28;20482;-81
2021/05/04 02:04:31;;;;;;;2.38;2.20;;;;;;;4.79;63.61;96029.25;5075315;28;20040;-81
2021/05/04 02:06:59;;;;;;;2.40;2.20;;;;;;;4.77;63.62;96017.47;5076940;28;20039;-81
2021/05/04 02:09:25;;;;;;;2.63;2.42;;;;;;;4.75;63.40;96012.44;5076577;28;20043;-81
2021/05/04 02:11:52;;;;;;;2.10;2.00;;;;;;;4.68;63.52;96014.19;5076221;28;20045;-81
2021/05/04 02:14:18;;;;;;;2.15;2.05;;;;;;;4.68;63.63;96015.00;5076466;28;20040;-81
2021/05/04 02:16:44;;;;;;;2.60;2.40;;;;;;;4.66;63.77;96010.97;5074766;28;20041;-81
2021/05/04 02:19:10;;;;;;;2.40;2.20;;;;;;;4.62;63.72;96007.97;5076674;28;20484;-81
2021/05/04 02:21:37;;;;;;;2.40;2.28;;;;;;;4.61;63.73;95995.97;5076410;28;20036;-83
2021/05/04 02:24:03;;;;;;;2.83;2.63;;;;;;;4.62;63.82;96000.19;5076335;28;20036;-82
2021/05/04 02:26:30;;;;;;;3.40;2.30;;;;;;;4.64;63.90;95993.00;5076508;28;20040;-82
2021/05/04 02:28:56;;;;;;;2.35;2.15;;;;;;;4.63;64.04;95993.19;5076198;28;20052;-82
2021/05/04 02:31:22;;;;;;;2.63;2.42;;;;;;;4.59;63.92;95987.56;5074980;28;20040;-79
2021/05/04 02:33:48;;;;;;;2.70;2.50;;;;;;;4.58;64.03;95986.00;5076684;28;20376;-79
2021/05/04 02:36:14;;;;;;;2.50;2.30;;;;;;;4.57;64.24;95975.78;5075681;28;20047;-80
2021/05/04 02:38:41;;;;;;;3.05;2.85;;;;;;;4.55;64.16;95988.94;5074636;28;20040;-79
2021/05/04 02:41:08;;;;;;;2.60;2.40;;;;;;;4.59;64.23;95977.19;5075867;28;20051;-80
2021/05/04 02:43:35;;;;;;;2.30;2.10;;;;;;;4.57;64.11;95968.78;5075932;28;20040;-79
2021/05/04 02:46:02;;;;;;;2.63;2.42;;;;;;;4.52;64.07;95960.00;5075989;28;20035;-80
2021/05/04 02:48:29;;;;;;;2.38;2.17;;;;;;;4.41;64.14;95954.34;5066031;28;20039;-79
2021/05/04 02:50:55;;;;;;;2.55;2.35;;;;;;;4.36;64.26;95955.88;5075967;28;20045;-79
2021/05/04 02:53:21;;;;;;;3.83;2.65;;;;;;;4.33;64.46;95961.47;5076265;28;20043;-79
2021/05/04 02:55:47;;;;;;;2.72;2.53;;;;;;;4.24;64.62;95953.84;5075809;28;20465;-79
2021/05/04 02:58:13;;;;;;;2.35;2.25;;;;;;;4.22;64.63;95949.81;5074234;28;20039;-79
2021/05/04 03:00:40;;;;;;;3.05;2.85;;;;;;;4.24;64.92;95953.00;5075082;28;20048;-79
2021/05/04 03:03:06;;;;;;;2.65;2.47;;;;;;;4.19;65.09;95939.81;5075221;28;20075;-79
2021/05/04 03:05:33;;;;;;;2.85;2.55;;;;;;;4.20;65.23;95939.63;5075704;28;20051;-79
2021/05/04 03:07:59;;;;;;;2.40;2.20;;;;;;;4.22;65.42;95937.66;5075700;28;20405;-79
2021/05/04 03:10:25;;;;;;;2.30;2.13;;;;;;;4.25;65.59;95929.47;5075030;28;20045;-78
2021/05/04 03:12:51;;;;;;;2.80;2.60;;;;;;;4.29;65.67;95919.50;5075019;28;20401;-78
2021/05/04 03:15:18;;;;;;;2.53;2.42;;;;;;;4.31;65.50;95924.53;5075722;28;20048;-78
2021/05/04 03:17:44;;;;;;;2.45;2.25;;;;;;;4.28;65.72;95915.31;5075226;28;20044;-78
2021/05/04 03:20:11;;;;;;;4.50;2.58;;;;;;;4.29;65.72;95916.13;5075276;28;20036;-79
2021/05/04 03:22:37;;;;;;;2.80;2.60;;;;;;;4.27;65.70;95904.13;5075391;28;20063;-78
2021/05/04 03:25:03;;;;;;;2.50;2.30;;;;;;;4.24;65.87;95904.53;5074683;28;20052;-78
2021/05/04 03:27:30;;;;;;;3.10;2.78;;;;;;;4.25;65.96;95905.31;5075290;28;20045;-78
2021/05/04 03:29:56;;;;;;;2.42;2.30;;;;;;;4.26;66.20;95894.75;5075399;28;20041;-78
2021/05/04 03:32:22;;;;;;;3.00;2.47;;;;;;;4.30;65.96;95900.34;5075159;28;20044;-78
2021/05/04 03:34:48;;;;;;;2.70;2.50;;;;;;;4.31;66.13;95891.56;5074685;28;20039;-78
2021/05/04 03:37:15;;;;;;;2.22;2.03;;;;;;;4.34;66.21;95895.56;5075112;28;20400;-78
2021/05/04 03:39:41;;;;;;;2.42;2.22;;;;;;;4.37;65.98;95887.41;5074927;28;20048;-78
2021/05/04 03:42:07;;;;;;;2.13;2.00;;;;;;;4.41;66.12;95899.00;5074886;28;20055;-78
2021/05/04 03:44:33;;;;;;;2.85;2.03;;;;;;;4.47;66.07;95904.25;5072858;28;20059;-77
2021/05/04 03:46:59;;;;;;;2.28;2.10;;;;;;;4.50;65.99;95894.47;5074621;28;20500;-78
2021/05/04 03:49:26;;;;;;;2.13;2.03;;;;;;;4.55;66.09;95895.47;5075014;28;20469;-77
2021/05/04 03:51:52;;;;;;;2.20;2.10;;;;;;;4.59;66.16;95901.09;5075174;28;20044;-79
2021/05/04 03:54:18;;;;;;;2.25;2.15;;;;;;;4.61;66.04;95899.91;5074609;28;20041;-79
2021/05/04 03:56:44;;;;;;;2.30;2.10;;;;;;;4.64;66.07;95901.28;5073826;28;20049;-79
2021/05/04 03:59:11;;;;;;;2.30;2.10;;;;;;;4.66;66.22;95891.50;5074140;28;20052;-79
2021/05/04 04:01:37;;;;;;;2.17;2.08;;;;;;;4.68;66.02;95881.72;5074298;28;20040;-79
2021/05/04 04:04:03;;;;;;;2.35;2.15;;;;;;;4.70;66.20;95884.94;5074507;28;20044;-79
2021/05/04 04:06:30;;;;;;;2.85;2.17;;;;;;;4.72;66.09;95882.16;5073898;28;20056;-78
2021/05/04 04:08:56;;;;;;;1.90;1.80;;;;;;;4.75;66.17;95881.78;5074450;28;20036;-78
2021/05/04 04:11:23;;;;;;;2.92;1.98;;;;;;;4.76;65.96;95883.38;5074143;28;20051;-77
2021/05/04 04:13:49;;;;;;;2.35;2.15;;;;;;;4.78;65.97;95868.38;5073592;28;20047;-77
2021/05/04 04:16:15;;;;;;;2.33;2.22;;;;;;;4.84;66.00;95872.81;5073916;28;20043;-76
2021/05/04 04:18:41;;;;;;;1.92;1.83;;;;;;;4.84;65.81;95871.00;5073955;28;20032;-78
2021/05/04 04:21:08;;;;;;;3.53;1.80;;;;;;;4.85;65.90;95867.41;5074436;28;20044;-79
2021/05/04 04:23:34;;;;;;;2.15;1.95;;;;;;;4.86;65.87;95863.03;5073809;28;20044;-79
2021/05/04 04:26:00;;;;;;;2.13;2.03;;;;;;;4.88;65.77;95855.84;5073952;28;20044;-79
2021/05/04 04:28:26;;;;;;;2.00;1.77;;;;;;;4.88;65.81;95853.22;5074019;28;20045;-79
2021/05/04 04:30:52;;;;;;;2.03;1.92;;;;;;;4.88;65.77;95851.44;5073601;28;20051;-79
2021/05/04 04:33:26;;;;;;;1.92;1.83;;;;;;;4.91;65.70;95858.03;5073683;28;20040;-80
2021/05/04 04:35:52;;;;;;;2.30;2.10;;;;;;;4.93;65.56;95844.84;5073673;28;20392;-80
2021/05/04 04:38:20;;;;;;;2.25;1.90;;;;;;;4.95;65.69;95853.25;5074014;28;20036;-79
2021/05/04 04:40:47;;;;;;;1.95;1.85;;;;;;;4.98;65.71;95845.06;5073848;28;20025;-79
2021/05/04 04:43:14;;;;;;;2.15;2.05;;;;;;;5.00;65.69;95843.88;5073386;28;20055;-79
2021/05/04 04:45:40;;;;;;;1.92;1.83;;;;;;;5.03;65.51;95840.06;5073873;28;20392;-78
2021/05/04 04:48:08;;;;;;;2.58;1.73;;;;;;;5.06;65.65;95845.69;5072969;28;20417;-78
2021/05/04 04:50:34;;;;;;;1.95;1.85;;;;;;;5.08;65.54;95828.09;5073532;28;20044;-78
2021/05/04 04:53:01;;;;;;;2.33;1.58;;;;;;;5.12;65.51;95822.47;5073743;28;20051;-81
2021/05/04 04:55:27;;;;;;;1.55;1.45;;;;;;;5.16;65.55;95831.47;5073552;28;20453;-79
2021/05/04 04:57:54;;;;;;;1.88;1.77;;;;;;;5.23;65.08;95830.50;5072985;28;20052;-79
2021/05/04 05:00:21;;;;;;;1.95;1.77;;;;;;;5.34;65.07;95823.91;5073301;28;20036;-78
2021/05/04 05:02:47;;;;;;;1.58;1.50;;;;;;;5.45;65.12;95827.69;5073344;28;20052;-77
2021/05/04 05:05:13;;;;;;;1.30;1.23;;;;;;;5.53;64.75;95826.72;5073186;28;20043;-78
2021/05/04 05:07:41;;;;;;;1.50;1.40;;;;;;;5.64;64.70;95829.47;5073528;28;20032;-77
2021/05/04 05:10:08;;;;;;;1.70;1.60;;;;;;;5.72;64.29;95815.47;5072990;28;20045;-78
2021/05/04 05:12:34;;;;;;;1.40;1.30;;;;;;;5.79;64.12;95813.66;5073185;28;20037;-76
2021/05/04 05:15:02;;;;;;;1.70;1.60;;;;;;;5.87;64.01;95807.44;5073304;28;20033;-78
2021/05/04 05:17:29;;;;;;;2.92;1.30;;;;;;;5.95;63.90;95802.06;5073018;28;20048;-79
2021/05/04 05:19:56;;;;;;;2.10;2.00;;;;;;;6.03;63.68;95804.44;5072941;28;20041;-80
2021/05/04 05:22:22;;;;;;;3.47;1.83;;;;;;;6.13;63.49;95803.19;5073416;28;20036;-80
2021/05/04 05:24:49;;;;;;;1.60;1.50;;;;;;;6.21;63.29;95785.53;5072115;28;20037;-80
2021/05/04 05:27:15;;;;;;;1.80;1.23;;;;;;;6.32;62.95;95796.31;5071756;28;20037;-77
2021/05/04 05:29:41;;;;;;;1.70;1.60;;;;;;;6.43;62.73;95786.06;5073352;28;20055;-76
2021/05/04 05:32:07;;;;;;;1.73;1.63;;;;;;;6.55;62.65;95788.00;5073504;28;20048;-75
2021/05/04 05:34:34;;;;;;;4.53;1.40;;;;;;;6.61;62.50;95787.94;5072824;28;20036;-76
2021/05/04 05:37:00;;;;;;;1.55;1.45;;;;;;;6.68;62.08;95783.53;5072859;28;20037;-76
2021/05/04 05:39:26;;;;;;;1.50;1.40;;;;;;;6.77;61.95;95786.66;5072777;28;20048;-77
2021/05/04 05:41:53;;;;;;;1.77;1.67;;;;;;;6.86;61.63;95779.41;5072886;28;20409;-78
2021/05/04 05:44:19;;;;;;;1.45;1.27;;;;;;;6.93;61.58;95779.34;5072762;28;20033;-80
2021/05/04 05:46:45;;;;;;;1.98;1.42;;;;;;;6.98;61.35;95769.09;5072854;28;20043;-77
2021/05/04 05:49:12;;;;;;;1.60;1.50;;;;;;;7.04;61.09;95765.66;5072683;28;20043;-83
2021/05/04 05:51:39;;;;;;;1.42;1.33;;;;;;;7.08;61.21;95762.41;5061227;28;20036;-86
2021/05/04 05:54:05;;;;;;;1.50;1.40;;;;;;;7.13;61.00;95763.59;5071484;28;20036;-79
2021/05/04 05:56:32;;;;;;;1.92;1.40;;;;;;;7.18;60.84;95766.34;5071357;28;20485;-79
2021/05/04 05:58:58;;;;;;;1.90;1.35;;;;;;;7.23;60.88;95769.13;5072679;28;20079;-80
2021/05/04 06:01:24;;;;;;;2.15;1.50;;;;;;;7.28;60.73;95764.84;5073554;28;20044;-78
2021/05/04 06:03:50;;;;;;;1.50;1.30;;;;;;;7.35;60.65;95766.59;5072863;28;20086;-87
2021/05/04 06:06:18;;;;;;;1.50;1.40;;;;;;;7.40;60.47;95756.34;5073000;28;20052;-84
2021/05/04 06:08:45;;;;;;;2.17;1.52;;;;;;;7.45;60.53;95756.47;5054905;28;20047;-85
2021/05/04 06:11:12;;;;;;;1.30;1.20;;;;;;;7.50;60.36;95754.81;5072611;28;20036;-77
2021/05/04 06:13:38;;;;;;;2.13;1.90;;;;;;;7.57;60.35;95761.78;5072555;28;20048;-78
2021/05/04 06:16:05;;;;;;;1.60;1.35;;;;;;;7.64;60.33;95762.53;5072618;28;20031;-78
2021/05/04 06:18:32;;;;;;;1.60;1.50;;;;;;;7.75;60.29;95753.19;5072057;28;20500;-78
2021/05/04 06:20:58;;;;;;;1.52;1.42;;;;;;;7.86;60.10;95753.25;5073052;28;20047;-77
2021/05/04 06:23:24;;;;;;;1.92;1.35;;;;;;;7.97;60.03;95736.06;5072200;28;20055;-78
2021/05/04 06:25:51;;;;;;;3.42;1.60;;;;;;;8.12;59.68;95744.31;5072389;28;20107;-77
2021/05/04 06:28:17;;;;;;;1.52;1.42;;;;;;;8.31;59.59;95747.69;5071960;28;20469;-78
2021/05/04 06:30:44;;;;;;;1.45;1.35;;;;;;;8.52;59.35;95736.03;5072267;28;20041;-78
2021/05/04 06:33:13;;;;;;;1.50;1.40;;;;;;;8.74;58.73;95723.25;5072302;28;20048;-79
2021/05/04 06:35:42;;;;;;;1.85;1.25;;;;;;;8.91;58.61;95723.38;5072795;28;20044;-78
2021/05/04 06:38:13;;;;;;;1.75;1.60;;;;;;;9.13;58.24;95726.28;5075862;28;20400;-79
2021/05/04 06:40:41;;;;;;;3.33;1.23;;;;;;;9.35;58.22;95726.50;5076348;28;20040;-78
2021/05/04 06:43:08;;;;;;;1.70;1.60;;;;;;;9.53;58.01;95716.94;5076018;28;20041;-80
2021/05/04 06:45:35;;;;;;;1.55;1.45;;;;;;;9.68;57.18;95708.59;5075472;28;20040;-79
2021/05/04 06:48:01;;;;;;;1.50;1.40;;;;;;;9.81;57.06;95704.97;5075624;28;20059;-79
2021/05/04 06:50:28;;;;;;;3.67;1.35;;;;;;;9.98;57.43;95708.44;5063533;28;20037;-77
2021/05/04 06:52:54;;;;;;;1.50;1.40;;;;;;;10.35;57.05;95706.31;5075896;28;20040;-77
2021/05/04 06:55:21;;;;;;;1.05;1.05;;;;;;;10.71;56.22;95685.16;5075756;28;20465;-77
2021/05/04 06:57:47;;;;;;;1.55;1.20;;;;;;;11.13;55.20;95677.69;5074982;28;20052;-77
2021/05/04 07:00:14;;;;;;;0.93;0.80;;;;;;;11.63;54.14;95669.97;5075808;28;20053;-77
2021/05/04 07:02:41;;;;;;;0.77;0.77;;;;;;;12.09;52.92;95666.06;5074929;28;20370;-77
2021/05/04 07:05:08;;;;;;;1.75;1.02;;;;;;;12.64;51.41;95660.81;5075107;28;20045;-77
2021/05/04 07:07:35;;;;;;;0.73;0.70;;;;;;;13.12;50.64;95693.31;5057601;28;20040;-77
2021/05/04 07:10:02;;;;;;;0.75;0.73;;;;;;;13.33;48.35;95700.34;5075296;28;20072;-77
2021/05/04 07:12:29;;;;;;;1.00;1.00;;;;;;;13.46;47.29;95740.44;5075248;28;20048;-77
2021/05/04 07:14:55;;;;;;;0.88;0.88;;;;;;;13.55;46.11;95731.84;5074476;28;20040;-77
2021/05/04 07:17:23;;;;;;;1.15;0.75;;;;;;;13.65;45.46;95715.31;5075968;28;20045;-77
2021/05/04 07:19:50;;;;;;;2.63;0.90;;;;;;;13.77;44.88;95723.00;5075417;28;20047;-77
2021/05/04 07:22:20;;;;;;;1.10;0.93;;;;;;;13.93;43.96;95705.44;5075298;28;20059;-77
2021/05/04 07:24:48;;;;;;;3.25;0.90;;;;;;;14.15;43.45;95708.69;5074981;28;20044;-77
2021/05/04 07:27:14;;;;;;;1.27;0.88;;;;;;;14.52;42.39;95701.66;5075149;28;20039;-77
2021/05/04 07:29:41;;;;;;;1.10;0.90;;;;;;;14.96;41.68;95706.50;5074893;28;20041;-77
2021/05/04 07:32:17;;;;;;;1.35;0.73;;;;;;;15.31;40.82;95699.63;5080650;28;20044;-77
2021/05/04 07:34:47;;;;;;;3.90;0.98;;;;;;;15.52;36.92;95690.59;5080057;28;20036;-77
2021/05/04 07:37:14;;;;;;;1.50;0.73;;;;;;;15.41;39.01;95692.47;5075725;28;20035;-78
2021/05/04 07:39:42;;;;;;;1.92;0.85;;;;;;;15.18;38.77;95693.81;5074897;28;20138;-77
2021/05/04 07:42:11;;;;;;;0.80;0.75;;;;;;;15.04;38.06;95695.41;5076431;28;20040;-77
2021/05/04 07:44:41;;;;;;;3.67;1.08;;;;;;;15.11;37.94;95695.13;5082730;28;20044;-77
2021/05/04 07:47:08;;;;;;;0.98;0.93;;;;;;;15.16;38.16;95690.66;5082028;28;20036;-77
2021/05/04 07:49:43;;;;;;;1.35;0.77;;;;;;;15.14;37.77;95695.41;5074815;28;20041;-77
2021/05/04 07:52:11;;;;;;;0.70;0.70;;;;;;;15.14;37.53;95676.94;5074464;28;20481;-77
2021/05/04 07:54:37;;;;;;;0.80;0.70;;;;;;;15.19;37.19;95681.41;5077491;28;20480;-77
2021/05/04 07:57:04;;;;;;;2.80;1.00;;;;;;;15.21;37.35;95674.00;5074357;28;20032;-77
2021/05/04 07:59:31;;;;;;;3.22;0.63;;;;;;;15.36;37.02;95667.91;5074756;28;20056;-77
2021/05/04 08:01:59;;;;;;;2.70;0.70;;;;;;;15.46;36.53;95664.47;5074025;28;20049;-77
2021/05/04 08:04:26;;;;;;;1.33;0.70;;;;;;;15.41;36.25;95676.63;5059622;28;20044;-78
2021/05/04 08:06:52;;;;;;;1.08;0.77;;;;;;;15.46;36.40;95669.75;5074669;28;20055;-77
2021/05/04 08:09:29;;;;;;;1.95;0.60;;;;;;;15.56;36.16;95661.78;5074069;28;20405;-78
2021/05/04 08:11:56;;;;;;;1.50;0.82;;;;;;;15.52;36.01;95666.81;5074853;28;20033;-78
2021/05/04 08:14:24;;;;;;;3.10;0.73;;;;;;;15.26;35.71;95675.84;5074439;28;20037;-78
2021/05/04 08:16:51;;;;;;;5.13;1.25;;;;;;;15.09;35.78;95666.34;5074321;28;20047;-78
2021/05/04 08:19:18;;;;;;;3.33;1.10;;;;;;;14.92;35.70;95674.53;5073980;28;20059;-78
2021/05/04 08:21:45;;;;;;;0.70;0.70;;;;;;;14.85;35.79;95673.25;5074390;28;20032;-78
2021/05/04 08:24:12;;;;;;;0.80;0.80;;;;;;;14.83;35.79;95684.06;5074225;28;20485;-77
2021/05/04 08:26:39;;;;;;;1.15;0.80;;;;;;;14.75;35.86;95685.34;5074789;28;20040;-77
2021/05/04 08:29:07;;;;;;;2.08;0.90;;;;;;;14.68;35.89;95678.75;5077656;28;20462;-78
2021/05/04 08:31:35;;;;;;;2.10;0.80;;;;;;;14.65;36.09;95687.19;5076180;28;20413;-78
2021/05/04 08:34:02;;;;;;;1.70;0.85;;;;;;;14.58;36.19;95672.41;5076291;28;20473;-78
2021/05/04 08:36:30;;;;;;;0.88;0.88;;;;;;;14.57;36.35;95677.94;5076061;28;20041;-78
2021/05/04 08:38:58;;;;;;;1.10;0.80;;;;;;;14.45;36.36;95656.25;5074209;28;20044;-78
2021/05/04 08:41:25;;;;;;;1.38;0.80;;;;;;;14.33;36.74;95674.97;5073145;28;20469;-77
2021/05/04 08:43:52;;;;;;;1.85;1.00;;;;;;;14.48;36.82;95674.22;5073675;28;20461;-78
2021/05/04 08:46:21;;;;;;;0.60;0.60;;;;;;;14.88;37.13;95667.41;5073974;28;20492;-77
2021/05/04 08:48:48;;;;;;;1.70;0.70;;;;;;;15.30;36.67;95663.69;5072961;28;20040;-78
2021/05/04 08:51:15;;;;;;;1.73;0.98;;;;;;;15.75;36.28;95670.75;5073925;28;20036;-78
2021/05/04 08:53:42;;;;;;;2.63;0.93;;;;;;;16.07;35.65;95660.84;5073676;28;20045;-78
2021/05/04 08:56:12;;;;;;;1.30;0.90;;;;;;;16.35;35.18;95643.50;5073534;28;20039;-78
2021/05/04 08:58:40;;;;;;;0.88;0.70;;;;;;;16.51;34.90;95657.44;5072172;28;20056;-78
2021/05/04 09:01:07;;;;;;;1.08;0.90;;;;;;;16.60;34.60;95645.97;5073650;28;20044;-78
2021/05/04 09:03:56;;;;;;;3.20;1.27;;;;;;;16.82;34.38;95650.88;5073517;28;20045;-77
2021/05/04 09:06:41;;;;;;;0.75;0.75;;;;;;;16.88;33.14;95651.63;5060929;28;20037;-78
2021/05/04 09:09:16;;;;;;;2.28;0.80;;;;;;;16.88;33.84;95648.97;5074386;28;20036;-77
2021/05/04 09:19:59;;;;;;;2.33;0.90;;;;;;;16.97;33.73;95641.25;5074209;28;20416;-78
2021/05/04 09:22:38;;;;;;;3.92;0.95;;;;;;;17.00;32.59;95620.25;5073601;28;20357;-78
2021/05/04 09:25:07;;;;;;;3.58;0.93;;;;;;;17.05;33.03;95630.06;5072683;28;20033;-78
2021/05/04 09:27:33;;;;;;;3.13;0.90;;;;;;;17.04;33.26;95642.47;5072892;28;20044;-78
2021/05/04 09:30:01;;;;;;;2.63;0.70;;;;;;;17.10;33.28;95614.09;5072353;28;20052;-78
2021/05/04 09:32:31;;;;;;;1.58;0.80;;;;;;;17.27;33.26;95628.78;5073042;28;20028;-78
2021/05/04 09:35:04;;;;;;;1.30;0.82;;;;;;;17.41;33.04;95627.06;5073248;28;20036;-78
2021/05/04 09:37:43;;;;;;;2.22;0.63;;;;;;;17.66;32.99;95618.03;5072746;28;20031;-78
2021/05/04 09:40:29;;;;;;;1.10;0.90;;;;;;;17.64;31.46;95628.91;5073525;28;20465;-78
2021/05/04 09:43:02;;;;;;;1.63;0.75;;;;;;;17.58;32.51;95619.44;5064421;28;20040;-78
2021/05/04 09:45:28;;;;;;;4.43;1.35;;;;;;;17.67;32.67;95610.84;5072697;28;20409;-78
2021/05/04 09:48:10;;;;;;;2.38;1.02;;;;;;;17.68;31.76;95610.59;5073035;28;20055;-78
2021/05/04 09:51:08;;;;;;;2.28;0.70;;;;;;;17.81;31.85;95614.41;5072015;28;20031;-78
2021/05/04 09:56:12;;;;;;;2.72;0.88;;;;;;;18.11;32.22;95631.03;5073275;28;20051;-78
2021/05/04 09:58:46;;;;;;;1.73;0.90;;;;;;;18.16;32.33;95605.19;5072994;28;20060;-78
2021/05/04 10:01:15;;;;;;;1.45;1.05;;;;;;;18.35;32.38;95623.81;5063429;28;20052;-78
2021/05/04 10:03:43;;;;;;;2.00;0.85;;;;;;;18.41;32.32;95619.19;5073191;28;20040;-77
2021/05/04 10:06:11;;;;;;;1.45;0.80;;;;;;;18.44;32.09;95619.41;5072501;28;20067;-78
2021/05/04 10:08:39;;;;;;;3.75;1.27;;;;;;;18.46;32.05;95621.78;5072966;28;20405;-78
2021/05/04 10:11:08;;;;;;;2.17;1.00;;;;;;;18.43;31.62;95619.69;5075525;28;20059;-78
2021/05/04 10:13:37;;;;;;;1.73;1.00;;;;;;;18.36;31.92;95612.09;5076204;28;20037;-78
2021/05/04 10:16:04;;;;;;;2.55;1.00;;;;;;;18.32;31.52;95618.28;5076368;28;20032;-78
2021/05/04 10:18:32;;;;;;;0.85;0.82;;;;;;;18.36;31.53;95619.28;5076911;28;20051;-78
2021/05/04 10:21:00;;;;;;;2.85;0.70;;;;;;;18.35;31.39;95610.53;5076193;28;20051;-78
2021/05/04 10:23:29;;;;;;;2.40;0.73;;;;;;;18.37;31.38;95604.91;5076739;28;20039;-77
2021/05/04 10:26:03;;;;;;;1.30;0.93;;;;;;;18.29;31.19;95602.91;5076225;28;20032;-78
2021/05/04 10:28:32;;;;;;;1.83;0.88;;;;;;;18.30;31.30;95618.56;5076513;28;20048;-77
2021/05/04 10:31:04;;;;;;;0.95;0.82;;;;;;;18.22;31.18;95616.53;5076196;28;20028;-78
2021/05/04 10:33:34;;;;;;;1.27;1.02;;;;;;;18.07;31.55;95614.09;5075687;28;20059;-78
2021/05/04 10:36:02;;;;;;;3.65;0.85;;;;;;;18.02;31.53;95612.31;5076162;28;20461;-77
2021/05/04 10:38:54;;;;;;;3.92;0.90;;;;;;;17.96;31.34;95603.63;5076209;28;20052;-76
2021/05/04 10:41:22;;;;;;;1.50;0.88;;;;;;;17.97;31.81;95618.44;5076434;28;20044;-77
2021/05/04 10:44:00;;;;;;;1.42;0.90;;;;;;;18.02;31.50;95614.97;5075796;28;20032;-77
2021/05/04 10:46:37;;;;;;;5.10;1.00;;;;;;;18.04;31.77;95600.34;5076083;28;20040;-76
2021/05/04 10:49:05;;;;;;;1.63;1.10;;;;;;;18.20;31.71;95592.16;5075809;28;20400;-75
2021/05/04 10:51:43;;;;;;;2.92;0.98;;;;;;;18.17;31.76;95601.47;5076242;28;20043;-77
2021/05/04 10:54:10;;;;;;;0.80;0.80;;;;;;;18.35;31.65;95594.59;5075789;28;20475;-77
2021/05/04 10:56:57;;;;;;;2.45;1.00;;;;;;;18.40;31.45;95599.81;5075041;28;20396;-77
2021/05/04 10:59:23;;;;;;;1.05;0.80;;;;;;;18.26;31.48;95606.94;5075659;28;20049;-78
2021/05/04 11:02:08;;;;;;;2.90;0.93;;;;;;;18.13;31.19;95597.81;5076035;28;20374;-77
2021/05/04 11:04:39;;;;;;;3.65;0.90;;;;;;;18.03;31.61;95579.38;5075386;28;20031;-77
2021/05/04 11:07:06;;;;;;;3.53;0.85;;;;;;;18.01;31.98;95605.41;5076924;28;20059;-78
2021/05/04 11:09:38;;;;;;;0.88;0.65;;;;;;;18.13;31.93;95594.38;5076516;28;20032;-77
2021/05/04 11:12:06;;;;;;;3.22;1.00;;;;;;;18.36;31.94;95600.69;5076128;28;20067;-77
2021/05/04 11:14:35;;;;;;;1.60;0.90;;;;;;;18.66;31.98;95605.53;5075676;28;20051;-78
2021/05/04 11:17:06;;;;;;;2.15;1.05;;;;;;;18.48;30.76;95605.56;5075619;28;20044;-77
2021/05/04 11:19:36;;;;;;;0.77;0.77;;;;;;;18.14;31.38;95583.50;5075119;28;20044;-77
2021/05/04 11:22:24;;;;;;;0.70;0.70;;;;;;;17.67;31.56;95606.34;5074761;28;20043;-78
2021/05/04 11:24:54;;;;;;;2.75;1.20;;;;;;;17.45;31.77;95607.66;5075810;28;20037;-77
2021/05/04 11:27:26;;;;;;;2.92;1.60;;;;;;;17.52;32.34;95609.94;5075682;28;20036;-78
2021/05/04 11:29:55;;;;;;;2.45;0.75;;;;;;;17.68;32.11;95592.03;5074778;28;20404;-78
2021/05/04 11:32:41;;;;;;;1.17;0.82;;;;;;;17.72;32.43;95579.75;5074360;28;20040;-78
2021/05/04 11:35:09;;;;;;;1.73;0.70;;;;;;;17.69;32.33;95603.41;5074835;28;20044;-77
2021/05/04 11:37:40;;;;;;;1.25;0.80;;;;;;;17.68;32.40;95605.28;5074616;28;20405;-77
2021/05/04 11:40:13;;;;;;;1.77;0.90;;;;;;;17.70;32.49;95612.94;5074998;28;20040;-77
2021/05/04 11:42:45;;;;;;;1.15;0.85;;;;;;;17.59;32.49;95607.75;5074143;28;20048;-78
2021/05/04 11:45:15;;;;;;;3.67;1.23;;;;;;;17.28;32.54;95609.94;5074816;28;20036;-78
2021/05/04 11:47:43;;;;;;;1.52;1.08;;;;;;;17.14;32.66;95577.25;5075205;28;20059;-77
2021/05/04 11:50:52;;;;;;;1.52;0.80;;;;;;;17.04;33.36;95607.25;5074571;28;20037;-77
2021/05/04 11:53:19;;;;;;;2.20;0.60;;;;;;;16.82;33.15;95594.50;5078165;28;20043;-78
2021/05/04 11:55:48;;;;;;;2.10;0.85;;;;;;;16.82;33.25;95603.22;5074203;28;20063;-77